sensor_id;sensor_type;location;lat;lon;timestamp;temperature;humidity
5520;DHT22;2782;52.362;10.012;2022-07-18T00:05:00;20.40;53.50
5520;DHT22;2782;52.362;10.012;2022-07-18T00:11:43;20.40;53.60
5520;DHT22;2782;52.362;10.012;2022-07-18T00:18:25;20.40;53.40
5520;DHT22;2782;52.362;10.012;2022-07-18T00:25:06;20.30;53.40
5520;DHT22;2782;52.362;10.012;2022-07-18T00:31:49;20.30;53.20
5520;DHT22;2782;52.362;10.012;2022-07-18T00:38:31;20.30;53.20
5520;DHT22;2782;52.362;10.012;2022-07-18T00:45:13;20.30;53.30
5520;DHT22;2782;52.362;10.012;2022-07-18T00:51:56;20.30;53.40
5520;DHT22;2782;52.362;10.012;2022-07-18T00:58:37;20.30;53.50
5520;DHT22;2782;52.362;10.012;2022-07-18T01:05:19;20.30;53.50
5520;DHT22;2782;52.362;10.012;2022-07-18T01:12:02;20.30;53.40
5520;DHT22;2782;52.362;10.012;2022-07-18T01:18:45;20.20;53.80
5520;DHT22;2782;52.362;10.012;2022-07-18T01:25:28;20.20;53.30
5520;DHT22;2782;52.362;10.012;2022-07-18T01:32:11;20.20;53.30
5520;DHT22;2782;52.362;10.012;2022-07-18T01:38:53;20.10;53.20
5520;DHT22;2782;52.362;10.012;2022-07-18T01:45:35;20.10;53.20
5520;DHT22;2782;52.362;10.012;2022-07-18T01:52:17;20.10;53.20
5520;DHT22;2782;52.362;10.012;2022-07-18T01:59:01;20.10;53.30
5520;DHT22;2782;52.362;10.012;2022-07-18T02:05:45;20.10;53.90
5520;DHT22;2782;52.362;10.012;2022-07-18T02:12:27;20.10;53.30
5520;DHT22;2782;52.362;10.012;2022-07-18T02:19:09;20.00;53.20
5520;DHT22;2782;52.362;10.012;2022-07-18T02:25:52;20.10;53.40
5520;DHT22;2782;52.362;10.012;2022-07-18T02:32:33;20.10;53.40
5520;DHT22;2782;52.362;10.012;2022-07-18T02:39:17;20.00;53.30
5520;DHT22;2782;52.362;10.012;2022-07-18T02:46:02;20.00;53.10
5520;DHT22;2782;52.362;10.012;2022-07-18T02:52:44;20.00;53.20
5520;DHT22;2782;52.362;10.012;2022-07-18T02:59:27;20.00;53.20
5520;DHT22;2782;52.362;10.012;2022-07-18T03:06:10;20.00;53.20
5520;DHT22;2782;52.362;10.012;2022-07-18T03:12:51;20.00;53.30
5520;DHT22;2782;52.362;10.012;2022-07-18T03:19:33;19.90;53.30
5520;DHT22;2782;52.362;10.012;2022-07-18T03:26:17;19.90;53.30
5520;DHT22;2782;52.362;10.012;2022-07-18T03:32:58;19.90;53.30
5520;DHT22;2782;52.362;10.012;2022-07-18T03:39:40;19.90;53.20
5520;DHT22;2782;52.362;10.012;2022-07-18T03:46:23;19.90;53.10
5520;DHT22;2782;52.362;10.012;2022-07-18T03:53:05;19.90;53.00
5520;DHT22;2782;52.362;10.012;2022-07-18T03:59:46;19.90;53.10
5520;DHT22;2782;52.362;10.012;2022-07-18T04:06:29;19.90;53.20
5520;DHT22;2782;52.362;10.012;2022-07-18T04:13:11;19.90;53.20
5520;DHT22;2782;52.362;10.012;2022-07-18T04:19:53;20.00;53.90
5520;DHT22;2782;52.362;10.012;2022-07-18T04:26:36;20.00;53.30
5520;DHT22;2782;52.362;10.012;2022-07-18T04:33:19;20.10;53.30
5520;DHT22;2782;52.362;10.012;2022-07-18T04:40:02;20.10;53.40
5520;DHT22;2782;52.362;10.012;2022-07-18T04:46:45;20.30;53.40
5520;DHT22;2782;52.362;10.012;2022-07-18T04:53:27;20.70;53.00
5520;DHT22;2782;52.362;10.012;2022-07-18T05:00:11;20.90;52.60
5520;DHT22;2782;52.362;10.012;2022-07-18T05:06:55;20.80;52.80
5520;DHT22;2782;52.362;10.012;2022-07-18T05:13:36;20.90;53.00
5520;DHT22;2782;52.362;10.012;2022-07-18T05:20:19;21.10;52.80
5520;DHT22;2782;52.362;10.012;2022-07-18T05:27:03;21.30;52.70
5520;DHT22;2782;52.362;10.012;2022-07-18T05:33:44;21.40;52.60
5520;DHT22;2782;52.362;10.012;2022-07-18T05:40:26;21.40;52.50
5520;DHT22;2782;52.362;10.012;2022-07-18T05:47:09;21.40;52.60
5520;DHT22;2782;52.362;10.012;2022-07-18T05:53:51;21.40;52.80
5520;DHT22;2782;52.362;10.012;2022-07-18T06:00:33;21.30;53.00
5520;DHT22;2782;52.362;10.012;2022-07-18T06:07:16;21.30;53.20
5520;DHT22;2782;52.362;10.012;2022-07-18T06:13:58;21.30;53.40
5520;DHT22;2782;52.362;10.012;2022-07-18T06:20:39;21.30;53.50
5520;DHT22;2782;52.362;10.012;2022-07-18T06:27:22;21.20;53.60
5520;DHT22;2782;52.362;10.012;2022-07-18T06:34:04;21.20;54.00
5520;DHT22;2782;52.362;10.012;2022-07-18T06:40:46;21.20;54.10
5520;DHT22;2782;52.362;10.012;2022-07-18T06:47:29;21.20;53.10
5520;DHT22;2782;52.362;10.012;2022-07-18T06:54:10;21.20;52.60
5520;DHT22;2782;52.362;10.012;2022-07-18T07:00:52;21.10;53.70
5520;DHT22;2782;52.362;10.012;2022-07-18T07:07:35;21.10;53.50
5520;DHT22;2782;52.362;10.012;2022-07-18T07:14:16;21.10;54.50
5520;DHT22;2782;52.362;10.012;2022-07-18T07:20:58;21.10;54.70
5520;DHT22;2782;52.362;10.012;2022-07-18T07:27:42;21.10;54.00
5520;DHT22;2782;52.362;10.012;2022-07-18T07:34:24;21.20;54.00
5520;DHT22;2782;52.362;10.012;2022-07-18T07:41:06;21.20;54.00
5520;DHT22;2782;52.362;10.012;2022-07-18T07:47:49;21.30;56.50
5520;DHT22;2782;52.362;10.012;2022-07-18T07:54:30;21.40;56.80
5520;DHT22;2782;52.362;10.012;2022-07-18T08:01:12;21.40;56.80
5520;DHT22;2782;52.362;10.012;2022-07-18T08:07:59;21.50;56.20
5520;DHT22;2782;52.362;10.012;2022-07-18T08:14:41;21.50;55.70
5520;DHT22;2782;52.362;10.012;2022-07-18T08:21:22;21.60;55.30
5520;DHT22;2782;52.362;10.012;2022-07-18T08:28:07;21.60;54.80
5520;DHT22;2782;52.362;10.012;2022-07-18T08:34:49;21.60;54.40
5520;DHT22;2782;52.362;10.012;2022-07-18T08:41:33;21.60;53.60
5520;DHT22;2782;52.362;10.012;2022-07-18T08:48:18;21.60;54.20
5520;DHT22;2782;52.362;10.012;2022-07-18T08:55:00;21.70;54.70
5520;DHT22;2782;52.362;10.012;2022-07-18T09:01:41;21.70;54.90
5520;DHT22;2782;52.362;10.012;2022-07-18T09:08:24;21.70;55.00
5520;DHT22;2782;52.362;10.012;2022-07-18T09:15:07;21.70;55.50
5520;DHT22;2782;52.362;10.012;2022-07-18T09:21:50;21.70;56.10
5520;DHT22;2782;52.362;10.012;2022-07-18T09:28:47;21.70;57.70
5520;DHT22;2782;52.362;10.012;2022-07-18T09:35:31;21.70;57.10
5520;DHT22;2782;52.362;10.012;2022-07-18T09:42:14;21.70;57.50
5520;DHT22;2782;52.362;10.012;2022-07-18T09:49:09;21.70;57.90
5520;DHT22;2782;52.362;10.012;2022-07-18T09:55:52;21.70;57.70
5520;DHT22;2782;52.362;10.012;2022-07-18T10:02:34;21.70;58.20
5520;DHT22;2782;52.362;10.012;2022-07-18T10:09:17;21.70;57.80
5520;DHT22;2782;52.362;10.012;2022-07-18T10:16:00;21.70;57.80
5520;DHT22;2782;52.362;10.012;2022-07-18T10:22:42;21.70;58.00
5520;DHT22;2782;52.362;10.012;2022-07-18T10:29:26;21.70;57.90
5520;DHT22;2782;52.362;10.012;2022-07-18T10:36:10;21.70;59.10
5520;DHT22;2782;52.362;10.012;2022-07-18T10:50:09;21.80;60.70
5520;DHT22;2782;52.362;10.012;2022-07-18T10:57:10;21.80;59.30
5520;DHT22;2782;52.362;10.012;2022-07-18T11:04:22;21.70;59.20
5520;DHT22;2782;52.362;10.012;2022-07-18T11:11:12;21.80;60.50
5520;DHT22;2782;52.362;10.012;2022-07-18T11:18:03;21.70;60.20
5520;DHT22;2782;52.362;10.012;2022-07-18T11:24:45;21.80;60.70
5520;DHT22;2782;52.362;10.012;2022-07-18T11:31:42;21.80;60.00
5520;DHT22;2782;52.362;10.012;2022-07-18T11:38:23;21.80;59.80
5520;DHT22;2782;52.362;10.012;2022-07-18T11:45:06;21.80;60.50
5520;DHT22;2782;52.362;10.012;2022-07-18T11:51:49;21.80;60.50
5520;DHT22;2782;52.362;10.012;2022-07-18T11:58:36;21.80;60.70
5520;DHT22;2782;52.362;10.012;2022-07-18T12:05:29;21.80;60.90
5520;DHT22;2782;52.362;10.012;2022-07-18T12:12:15;21.80;60.70
5520;DHT22;2782;52.362;10.012;2022-07-18T12:18:58;21.80;61.00
5520;DHT22;2782;52.362;10.012;2022-07-18T12:25:58;21.90;60.90
5520;DHT22;2782;52.362;10.012;2022-07-18T12:32:47;21.80;59.90
5520;DHT22;2782;52.362;10.012;2022-07-18T12:39:32;21.90;61.10
5520;DHT22;2782;52.362;10.012;2022-07-18T12:46:14;21.80;60.10
5520;DHT22;2782;52.362;10.012;2022-07-18T12:52:58;21.80;60.70
5520;DHT22;2782;52.362;10.012;2022-07-18T12:59:39;21.80;60.80
5520;DHT22;2782;52.362;10.012;2022-07-18T13:06:21;21.90;60.50
5520;DHT22;2782;52.362;10.012;2022-07-18T13:13:06;21.90;60.30
5520;DHT22;2782;52.362;10.012;2022-07-18T13:19:48;21.90;60.10
5520;DHT22;2782;52.362;10.012;2022-07-18T13:26:30;21.90;60.00
5520;DHT22;2782;52.362;10.012;2022-07-18T13:33:13;21.80;59.90
5520;DHT22;2782;52.362;10.012;2022-07-18T13:39:55;21.80;59.80
5520;DHT22;2782;52.362;10.012;2022-07-18T13:46:36;21.80;59.70
5520;DHT22;2782;52.362;10.012;2022-07-18T13:53:22;21.90;59.90
5520;DHT22;2782;52.362;10.012;2022-07-18T14:00:05;21.80;59.70
5520;DHT22;2782;52.362;10.012;2022-07-18T14:06:46;21.90;60.40
5520;DHT22;2782;52.362;10.012;2022-07-18T14:13:30;21.90;59.70
5520;DHT22;2782;52.362;10.012;2022-07-18T14:20:12;21.90;59.90
5520;DHT22;2782;52.362;10.012;2022-07-18T14:26:54;21.90;60.00
5520;DHT22;2782;52.362;10.012;2022-07-18T14:33:37;21.90;60.00
5520;DHT22;2782;52.362;10.012;2022-07-18T14:40:19;21.90;60.80
5520;DHT22;2782;52.362;10.012;2022-07-18T14:47:00;22.00;60.60
5520;DHT22;2782;52.362;10.012;2022-07-18T14:53:43;22.00;60.60
5520;DHT22;2782;52.362;10.012;2022-07-18T15:00:25;22.00;60.50
5520;DHT22;2782;52.362;10.012;2022-07-18T15:07:07;22.00;60.50
5520;DHT22;2782;52.362;10.012;2022-07-18T15:13:50;22.00;60.40
5520;DHT22;2782;52.362;10.012;2022-07-18T15:20:31;22.00;60.40
5520;DHT22;2782;52.362;10.012;2022-07-18T15:27:13;22.00;60.30
5520;DHT22;2782;52.362;10.012;2022-07-18T15:33:56;22.10;60.40
5520;DHT22;2782;52.362;10.012;2022-07-18T15:40:38;22.10;60.40
5520;DHT22;2782;52.362;10.012;2022-07-18T15:47:20;22.00;60.30
5520;DHT22;2782;52.362;10.012;2022-07-18T15:54:04;22.00;60.30
5520;DHT22;2782;52.362;10.012;2022-07-18T16:00:45;22.10;60.40
5520;DHT22;2782;52.362;10.012;2022-07-18T16:07:30;22.10;60.30
5520;DHT22;2782;52.362;10.012;2022-07-18T16:14:13;22.10;60.70
5520;DHT22;2782;52.362;10.012;2022-07-18T16:20:55;22.10;60.60
5520;DHT22;2782;52.362;10.012;2022-07-18T16:27:36;22.20;60.10
5520;DHT22;2782;52.362;10.012;2022-07-18T16:34:20;22.20;61.80
5520;DHT22;2782;52.362;10.012;2022-07-18T16:41:02;22.30;60.60
5520;DHT22;2782;52.362;10.012;2022-07-18T16:47:44;22.40;58.80
5520;DHT22;2782;52.362;10.012;2022-07-18T16:54:27;22.40;58.00
5520;DHT22;2782;52.362;10.012;2022-07-18T17:01:09;22.50;54.90
5520;DHT22;2782;52.362;10.012;2022-07-18T17:07:51;22.50;55.10
5520;DHT22;2782;52.362;10.012;2022-07-18T17:14:35;22.50;53.30
5520;DHT22;2782;52.362;10.012;2022-07-18T17:21:17;22.60;51.50
5520;DHT22;2782;52.362;10.012;2022-07-18T17:27:59;22.70;51.30
5520;DHT22;2782;52.362;10.012;2022-07-18T17:34:43;22.60;50.60
5520;DHT22;2782;52.362;10.012;2022-07-18T17:41:25;22.70;49.50
5520;DHT22;2782;52.362;10.012;2022-07-18T17:48:08;22.70;50.50
5520;DHT22;2782;52.362;10.012;2022-07-18T17:54:52;22.70;51.20
5520;DHT22;2782;52.362;10.012;2022-07-18T18:01:34;22.70;51.20
5520;DHT22;2782;52.362;10.012;2022-07-18T18:08:15;22.70;50.90
5520;DHT22;2782;52.362;10.012;2022-07-18T18:15:01;22.70;50.10
5520;DHT22;2782;52.362;10.012;2022-07-18T18:21:44;22.70;49.70
5520;DHT22;2782;52.362;10.012;2022-07-18T18:28:25;22.60;49.60
5520;DHT22;2782;52.362;10.012;2022-07-18T18:35:10;22.60;49.60
5520;DHT22;2782;52.362;10.012;2022-07-18T18:41:52;22.60;50.20
5520;DHT22;2782;52.362;10.012;2022-07-18T18:48:34;22.60;50.20
5520;DHT22;2782;52.362;10.012;2022-07-18T18:55:18;22.50;50.20
5520;DHT22;2782;52.362;10.012;2022-07-18T19:02:01;22.50;50.10
5520;DHT22;2782;52.362;10.012;2022-07-18T19:08:44;22.50;50.00
5520;DHT22;2782;52.362;10.012;2022-07-18T19:15:27;22.50;50.30
5520;DHT22;2782;52.362;10.012;2022-07-18T19:22:09;22.50;52.40
5520;DHT22;2782;52.362;10.012;2022-07-18T19:28:50;22.50;53.40
5520;DHT22;2782;52.362;10.012;2022-07-18T19:35:33;22.50;54.40
5520;DHT22;2782;52.362;10.012;2022-07-18T19:42:15;22.50;55.00
5520;DHT22;2782;52.362;10.012;2022-07-18T19:48:56;22.40;55.90
5520;DHT22;2782;52.362;10.012;2022-07-18T19:55:39;22.40;56.30
5520;DHT22;2782;52.362;10.012;2022-07-18T20:02:22;22.40;57.00
5520;DHT22;2782;52.362;10.012;2022-07-18T20:09:03;22.40;56.90
5520;DHT22;2782;52.362;10.012;2022-07-18T20:15:46;22.40;57.10
5520;DHT22;2782;52.362;10.012;2022-07-18T20:22:28;22.40;57.40
5520;DHT22;2782;52.362;10.012;2022-07-18T20:29:10;22.30;57.80
5520;DHT22;2782;52.362;10.012;2022-07-18T20:35:53;22.30;58.40
5520;DHT22;2782;52.362;10.012;2022-07-18T20:42:34;22.30;59.00
5520;DHT22;2782;52.362;10.012;2022-07-18T20:49:16;22.30;59.10
5520;DHT22;2782;52.362;10.012;2022-07-18T20:55:59;22.30;58.80
5520;DHT22;2782;52.362;10.012;2022-07-18T21:02:40;22.20;58.40
5520;DHT22;2782;52.362;10.012;2022-07-18T21:09:22;22.20;58.40
5520;DHT22;2782;52.362;10.012;2022-07-18T21:16:06;22.10;58.60
5520;DHT22;2782;52.362;10.012;2022-07-18T21:22:47;22.10;58.60
5520;DHT22;2782;52.362;10.012;2022-07-18T21:29:29;22.10;58.60
5520;DHT22;2782;52.362;10.012;2022-07-18T21:36:12;22.00;58.40
5520;DHT22;2782;52.362;10.012;2022-07-18T21:42:54;22.00;58.50
5520;DHT22;2782;52.362;10.012;2022-07-18T21:49:36;22.00;58.10
5520;DHT22;2782;52.362;10.012;2022-07-18T21:56:19;21.90;58.30
5520;DHT22;2782;52.362;10.012;2022-07-18T22:03:00;21.90;58.40
5520;DHT22;2782;52.362;10.012;2022-07-18T22:09:42;21.90;58.60
5520;DHT22;2782;52.362;10.012;2022-07-18T22:16:25;21.90;58.40
5520;DHT22;2782;52.362;10.012;2022-07-18T22:23:07;21.90;58.70
5520;DHT22;2782;52.362;10.012;2022-07-18T22:29:49;21.80;59.00
5520;DHT22;2782;52.362;10.012;2022-07-18T22:36:32;21.80;58.80
5520;DHT22;2782;52.362;10.012;2022-07-18T22:43:13;21.70;58.70
5520;DHT22;2782;52.362;10.012;2022-07-18T22:49:55;21.80;58.40
5520;DHT22;2782;52.362;10.012;2022-07-18T22:56:38;21.70;58.30
5520;DHT22;2782;52.362;10.012;2022-07-18T23:03:20;21.60;58.10
5520;DHT22;2782;52.362;10.012;2022-07-18T23:10:01;21.60;57.80
5520;DHT22;2782;52.362;10.012;2022-07-18T23:16:44;21.50;57.70
5520;DHT22;2782;52.362;10.012;2022-07-18T23:23:26;21.50;57.80
5520;DHT22;2782;52.362;10.012;2022-07-18T23:30:09;21.50;57.90
5520;DHT22;2782;52.362;10.012;2022-07-18T23:36:52;21.50;58.00
5520;DHT22;2782;52.362;10.012;2022-07-18T23:43:34;21.50;58.00
5520;DHT22;2782;52.362;10.012;2022-07-18T23:50:16;21.50;57.80
5520;DHT22;2782;52.362;10.012;2022-07-18T23:56:59;21.50;57.70
